Terminal Aerodrome Forecast
Issued by NWS Lake Charles, LA

Home | Current Version | Previous Version | Text Only | Print | Product List | Glossary On
Versions: 1 2 3 4 5 6 7 8 9 10 11 12 13 14 15 16 17 18
000
FTUS44 KLCH 231123
TAFLFT
TAF
KLFT 231123Z 2312/2412 VRB03KT 1/4SM FG VV002
      TEMPO 2313/2315 2SM BR SCT005 SCT012
     FM231500 VRB03KT 4SM BR SCT015
     FM231600 16008KT P6SM SCT025
     FM240400 15006KT P6SM BKN015=

USA.gov is the U.S. government's official web portal to all federal, state and local government web resources and services.